East Leroy, MI (49051)

4:02 AM EST on November 29, 2014 (GMT -0500)
Kellogg | Change Station
CLOSE
Current Station
Airport
Location: Battle Creek,
Elevation: 951 ft
Nearby Weather Stations

Elev 951 ft 42.31 °N, 85.25 °W | Updated 9 minutes ago

Overcast
Overcast
32 °F
Feels Like 24 °F
N
10
Wind Variable Wind from South

Today
High -- | Low -- °F
--% Chance of Precip.
Yesterday
High -- | Low -- °F
Precip. -- in
7:47 AM 5:10 PM
Waxing Crescent, 49% visible
Pressure 29.95 in
Visibility 10.0 miles
Clouds Scattered Clouds 12000 ft
Windchill 24 °F
Dew Point 22 °F
Humidity 66%
Rainfall 0.00 in
Snow Depth Not available.
UV 0 out of 12
Pollen .10 out of 12
Air Quality Not available.
Flu Activity Not available.
METAR KBTL 290853Z 17009KT 10SM SCT120 00/M06 A2991 RMK AO2 UPE02 SLP140 P0000 60000 T00001056 58017 $

More Conditions Fewer Conditions

Pressure 29.95 in
Visibility 10.0 miles
Clouds Scattered Clouds 12000 ft
Windchill 24 °F
Dew Point 22 °F
Humidity 66%
Rainfall 0.00 in
Snow Depth Not available.
UV 0 out of 12
Pollen .10 out of 12
Air Quality Not available.
Flu Activity Not available.
METAR KBTL 290853Z 17009KT 10SM SCT120 00/M06 A2991 RMK AO2 UPE02 SLP140 P0000 60000 T00001056 58017 $

More Conditions Fewer Conditions

10-Day Weather Forecast

Almanac

Astronomy

Nov. 29, 2014 Rise Set
Actual Time
Civil Twilight
Nautical Twilight
Astronomical Twilight
Moon
Length of Visible Light
Length of Day
Tomorrow will be .
, % of the Moon is Illuminated

Today's Extremes

State Highs State Lows

Community

WunderPhotos

Upload Photos

1,774,442 photos uploaded!

WunderBlogs® & News

Nearby

Air Quality

  Air Quality AQ Index Pollutant
Not available.

Snow Depth

Station Depth Elevation

Earthquake Activity

City Distance Mag. Time & Date
Minimum magnitude displayed is 2.5.

Coastal Water Temperatures

Place Temperature

Nearby Weather Stations